sensor_id;sensor_type;location;lat;lon;timestamp;P1;durP1;ratioP1;P2;durP2;ratioP2
12968;SDS011;6549;53.128;8.182;2023-02-27T00:00:29;13.50;;;8.30;;
12968;SDS011;6549;53.128;8.182;2023-02-27T00:03:29;12.85;;;7.85;;
12968;SDS011;6549;53.128;8.182;2023-02-27T00:06:30;13.35;;;7.40;;
12968;SDS011;6549;53.128;8.182;2023-02-27T00:09:30;13.13;;;7.68;;
12968;SDS011;6549;53.128;8.182;2023-02-27T00:12:30;13.50;;;7.03;;
12968;SDS011;6549;53.128;8.182;2023-02-27T00:15:36;11.88;;;6.88;;
12968;SDS011;6549;53.128;8.182;2023-02-27T00:18:37;13.77;;;6.85;;
12968;SDS011;6549;53.128;8.182;2023-02-27T00:21:37;13.70;;;6.90;;
12968;SDS011;6549;53.128;8.182;2023-02-27T00:24:38;17.58;;;8.00;;
12968;SDS011;6549;53.128;8.182;2023-02-27T00:27:38;13.32;;;7.43;;
12968;SDS011;6549;53.128;8.182;2023-02-27T00:30:38;12.63;;;7.15;;
12968;SDS011;6549;53.128;8.182;2023-02-27T00:33:39;12.50;;;6.32;;
12968;SDS011;6549;53.128;8.182;2023-02-27T00:36:39;12.63;;;6.70;;
12968;SDS011;6549;53.128;8.182;2023-02-27T00:39:39;11.15;;;6.50;;
12968;SDS011;6549;53.128;8.182;2023-02-27T00:42:39;11.95;;;6.57;;
12968;SDS011;6549;53.128;8.182;2023-02-27T00:45:40;13.35;;;7.05;;
12968;SDS011;6549;53.128;8.182;2023-02-27T00:48:40;10.30;;;5.90;;
12968;SDS011;6549;53.128;8.182;2023-02-27T00:51:41;10.55;;;6.13;;
12968;SDS011;6549;53.128;8.182;2023-02-27T00:54:41;13.90;;;8.38;;
12968;SDS011;6549;53.128;8.182;2023-02-27T00:57:41;12.63;;;7.35;;
12968;SDS011;6549;53.128;8.182;2023-02-27T01:00:42;14.05;;;7.38;;
12968;SDS011;6549;53.128;8.182;2023-02-27T01:03:42;10.65;;;6.63;;
12968;SDS011;6549;53.128;8.182;2023-02-27T01:06:43;12.75;;;7.13;;
12968;SDS011;6549;53.128;8.182;2023-02-27T01:09:43;11.50;;;6.32;;
12968;SDS011;6549;53.128;8.182;2023-02-27T01:12:43;12.98;;;6.80;;
12968;SDS011;6549;53.128;8.182;2023-02-27T01:15:44;13.50;;;6.97;;
12968;SDS011;6549;53.128;8.182;2023-02-27T01:18:44;10.77;;;6.68;;
12968;SDS011;6549;53.128;8.182;2023-02-27T01:21:44;14.32;;;7.13;;
12968;SDS011;6549;53.128;8.182;2023-02-27T01:24:45;12.05;;;6.63;;
12968;SDS011;6549;53.128;8.182;2023-02-27T01:27:45;9.00;;;6.20;;
12968;SDS011;6549;53.128;8.182;2023-02-27T01:30:45;9.80;;;6.05;;
12968;SDS011;6549;53.128;8.182;2023-02-27T01:33:46;12.80;;;6.32;;
12968;SDS011;6549;53.128;8.182;2023-02-27T01:36:47;15.95;;;6.32;;
12968;SDS011;6549;53.128;8.182;2023-02-27T01:39:48;10.32;;;6.57;;
12968;SDS011;6549;53.128;8.182;2023-02-27T01:42:48;11.52;;;6.40;;
12968;SDS011;6549;53.128;8.182;2023-02-27T01:45:49;13.25;;;6.78;;
12968;SDS011;6549;53.128;8.182;2023-02-27T01:48:49;14.40;;;7.50;;
12968;SDS011;6549;53.128;8.182;2023-02-27T01:51:58;11.52;;;6.20;;
12968;SDS011;6549;53.128;8.182;2023-02-27T01:55:04;10.80;;;5.53;;
12968;SDS011;6549;53.128;8.182;2023-02-27T01:58:08;11.55;;;6.28;;
12968;SDS011;6549;53.128;8.182;2023-02-27T02:01:11;10.20;;;5.57;;
12968;SDS011;6549;53.128;8.182;2023-02-27T02:04:22;11.52;;;5.65;;
12968;SDS011;6549;53.128;8.182;2023-02-27T02:07:31;8.73;;;4.45;;
12968;SDS011;6549;53.128;8.182;2023-02-27T02:10:33;10.05;;;5.07;;
12968;SDS011;6549;53.128;8.182;2023-02-27T02:13:34;8.77;;;4.90;;
12968;SDS011;6549;53.128;8.182;2023-02-27T02:20:03;9.45;;;4.97;;
12968;SDS011;6549;53.128;8.182;2023-02-27T02:23:21;8.60;;;5.28;;
12968;SDS011;6549;53.128;8.182;2023-02-27T02:30:43;9.60;;;5.30;;
12968;SDS011;6549;53.128;8.182;2023-02-27T02:33:56;11.23;;;5.95;;
12968;SDS011;6549;53.128;8.182;2023-02-27T02:43:48;9.30;;;5.50;;
12968;SDS011;6549;53.128;8.182;2023-02-27T02:53:40;8.48;;;5.10;;
12968;SDS011;6549;53.128;8.182;2023-02-27T02:56:59;8.57;;;5.00;;
12968;SDS011;6549;53.128;8.182;2023-02-27T03:00:07;8.52;;;4.57;;
12968;SDS011;6549;53.128;8.182;2023-02-27T03:03:16;9.25;;;4.28;;
12968;SDS011;6549;53.128;8.182;2023-02-27T03:06:29;7.15;;;4.65;;
12968;SDS011;6549;53.128;8.182;2023-02-27T03:09:33;10.20;;;5.03;;
12968;SDS011;6549;53.128;8.182;2023-02-27T03:12:38;9.25;;;5.00;;
12968;SDS011;6549;53.128;8.182;2023-02-27T03:15:47;8.07;;;4.70;;
12968;SDS011;6549;53.128;8.182;2023-02-27T03:19:04;7.55;;;4.80;;
12968;SDS011;6549;53.128;8.182;2023-02-27T03:22:14;8.68;;;4.57;;
12968;SDS011;6549;53.128;8.182;2023-02-27T03:25:17;7.82;;;4.15;;
12968;SDS011;6549;53.128;8.182;2023-02-27T03:28:21;8.73;;;4.87;;
12968;SDS011;6549;53.128;8.182;2023-02-27T03:31:26;8.45;;;4.32;;
12968;SDS011;6549;53.128;8.182;2023-02-27T03:34:33;9.23;;;4.72;;
12968;SDS011;6549;53.128;8.182;2023-02-27T03:40:50;11.25;;;4.93;;
12968;SDS011;6549;53.128;8.182;2023-02-27T03:44:02;10.13;;;5.32;;
12968;SDS011;6549;53.128;8.182;2023-02-27T03:47:08;8.48;;;4.97;;
12968;SDS011;6549;53.128;8.182;2023-02-27T03:50:08;11.32;;;5.82;;
12968;SDS011;6549;53.128;8.182;2023-02-27T03:53:11;12.30;;;5.57;;
12968;SDS011;6549;53.128;8.182;2023-02-27T03:56:15;11.20;;;5.50;;
12968;SDS011;6549;53.128;8.182;2023-02-27T03:59:20;11.60;;;5.47;;
12968;SDS011;6549;53.128;8.182;2023-02-27T04:02:23;9.90;;;5.72;;
12968;SDS011;6549;53.128;8.182;2023-02-27T04:05:24;11.18;;;5.63;;
12968;SDS011;6549;53.128;8.182;2023-02-27T04:08:36;10.35;;;4.80;;
12968;SDS011;6549;53.128;8.182;2023-02-27T04:11:55;9.15;;;4.97;;
12968;SDS011;6549;53.128;8.182;2023-02-27T04:25:12;9.68;;;4.70;;
12968;SDS011;6549;53.128;8.182;2023-02-27T04:32:03;7.30;;;4.63;;
12968;SDS011;6549;53.128;8.182;2023-02-27T04:35:13;9.38;;;5.25;;
12968;SDS011;6549;53.128;8.182;2023-02-27T04:38:30;7.95;;;4.40;;
12968;SDS011;6549;53.128;8.182;2023-02-27T04:41:53;11.63;;;5.30;;
12968;SDS011;6549;53.128;8.182;2023-02-27T04:44:58;7.40;;;4.38;;
12968;SDS011;6549;53.128;8.182;2023-02-27T04:48:04;9.73;;;4.70;;
12968;SDS011;6549;53.128;8.182;2023-02-27T04:51:12;8.25;;;4.45;;
12968;SDS011;6549;53.128;8.182;2023-02-27T04:54:16;10.05;;;4.63;;
12968;SDS011;6549;53.128;8.182;2023-02-27T04:57:25;7.47;;;4.47;;
12968;SDS011;6549;53.128;8.182;2023-02-27T05:00:32;8.23;;;3.90;;
12968;SDS011;6549;53.128;8.182;2023-02-27T05:03:40;11.75;;;6.47;;
12968;SDS011;6549;53.128;8.182;2023-02-27T05:06:44;13.27;;;6.53;;
12968;SDS011;6549;53.128;8.182;2023-02-27T05:09:48;11.18;;;5.20;;
12968;SDS011;6549;53.128;8.182;2023-02-27T05:12:58;7.90;;;4.65;;
12968;SDS011;6549;53.128;8.182;2023-02-27T05:16:13;10.30;;;5.55;;
12968;SDS011;6549;53.128;8.182;2023-02-27T05:19:14;8.23;;;4.65;;
12968;SDS011;6549;53.128;8.182;2023-02-27T05:25:45;9.50;;;5.10;;
12968;SDS011;6549;53.128;8.182;2023-02-27T05:28:52;10.45;;;5.70;;
12968;SDS011;6549;53.128;8.182;2023-02-27T05:35:38;10.33;;;5.53;;
12968;SDS011;6549;53.128;8.182;2023-02-27T05:38:50;9.82;;;5.30;;
12968;SDS011;6549;53.128;8.182;2023-02-27T05:41:56;11.15;;;6.03;;
12968;SDS011;6549;53.128;8.182;2023-02-27T05:45:02;11.48;;;6.90;;
12968;SDS011;6549;53.128;8.182;2023-02-27T05:48:10;13.10;;;5.82;;
12968;SDS011;6549;53.128;8.182;2023-02-27T05:51:34;9.48;;;5.90;;
12968;SDS011;6549;53.128;8.182;2023-02-27T05:58:06;11.50;;;7.28;;
12968;SDS011;6549;53.128;8.182;2023-02-27T06:01:12;11.13;;;6.40;;
12968;SDS011;6549;53.128;8.182;2023-02-27T06:04:12;10.27;;;6.28;;
12968;SDS011;6549;53.128;8.182;2023-02-27T06:07:13;14.50;;;7.25;;
12968;SDS011;6549;53.128;8.182;2023-02-27T06:10:16;14.35;;;8.63;;
12968;SDS011;6549;53.128;8.182;2023-02-27T06:13:18;11.80;;;7.88;;
12968;SDS011;6549;53.128;8.182;2023-02-27T06:16:18;12.60;;;8.55;;
12968;SDS011;6549;53.128;8.182;2023-02-27T06:19:19;12.80;;;7.70;;
12968;SDS011;6549;53.128;8.182;2023-02-27T06:22:19;10.85;;;6.82;;
12968;SDS011;6549;53.128;8.182;2023-02-27T06:25:19;13.80;;;8.13;;
12968;SDS011;6549;53.128;8.182;2023-02-27T06:28:21;12.57;;;7.88;;
12968;SDS011;6549;53.128;8.182;2023-02-27T06:31:21;11.63;;;7.55;;
12968;SDS011;6549;53.128;8.182;2023-02-27T06:34:21;17.30;;;10.30;;
12968;SDS011;6549;53.128;8.182;2023-02-27T06:37:22;16.30;;;8.85;;
12968;SDS011;6549;53.128;8.182;2023-02-27T06:40:22;16.25;;;9.98;;
12968;SDS011;6549;53.128;8.182;2023-02-27T06:43:23;14.50;;;9.30;;
12968;SDS011;6549;53.128;8.182;2023-02-27T06:46:24;15.43;;;9.27;;
12968;SDS011;6549;53.128;8.182;2023-02-27T06:49:24;14.50;;;9.70;;
12968;SDS011;6549;53.128;8.182;2023-02-27T06:52:25;20.05;;;10.40;;
12968;SDS011;6549;53.128;8.182;2023-02-27T06:55:25;18.60;;;9.80;;
12968;SDS011;6549;53.128;8.182;2023-02-27T06:58:26;15.48;;;9.18;;
12968;SDS011;6549;53.128;8.182;2023-02-27T07:01:26;17.17;;;8.20;;
12968;SDS011;6549;53.128;8.182;2023-02-27T07:04:26;13.35;;;7.78;;
12968;SDS011;6549;53.128;8.182;2023-02-27T07:07:27;16.02;;;9.88;;
12968;SDS011;6549;53.128;8.182;2023-02-27T07:10:27;13.32;;;8.60;;
12968;SDS011;6549;53.128;8.182;2023-02-27T07:13:27;15.38;;;9.05;;
12968;SDS011;6549;53.128;8.182;2023-02-27T07:16:28;15.13;;;8.15;;
12968;SDS011;6549;53.128;8.182;2023-02-27T07:19:29;12.05;;;7.60;;
12968;SDS011;6549;53.128;8.182;2023-02-27T07:22:30;11.40;;;6.85;;
12968;SDS011;6549;53.128;8.182;2023-02-27T07:25:30;11.82;;;7.03;;
12968;SDS011;6549;53.128;8.182;2023-02-27T07:28:31;11.13;;;6.70;;
12968;SDS011;6549;53.128;8.182;2023-02-27T07:31:31;11.48;;;6.40;;
12968;SDS011;6549;53.128;8.182;2023-02-27T07:34:32;12.13;;;6.75;;
12968;SDS011;6549;53.128;8.182;2023-02-27T07:37:32;8.88;;;5.82;;
12968;SDS011;6549;53.128;8.182;2023-02-27T07:40:32;13.13;;;7.72;;
12968;SDS011;6549;53.128;8.182;2023-02-27T07:43:33;11.45;;;7.15;;
12968;SDS011;6549;53.128;8.182;2023-02-27T07:46:33;15.23;;;9.27;;
12968;SDS011;6549;53.128;8.182;2023-02-27T07:49:34;13.98;;;8.63;;
12968;SDS011;6549;53.128;8.182;2023-02-27T07:52:35;14.20;;;8.25;;
12968;SDS011;6549;53.128;8.182;2023-02-27T07:55:35;14.93;;;8.63;;
12968;SDS011;6549;53.128;8.182;2023-02-27T07:58:35;16.98;;;9.95;;
12968;SDS011;6549;53.128;8.182;2023-02-27T08:01:36;19.10;;;12.85;;
12968;SDS011;6549;53.128;8.182;2023-02-27T08:04:36;22.08;;;13.50;;
12968;SDS011;6549;53.128;8.182;2023-02-27T08:07:36;16.73;;;12.15;;
12968;SDS011;6549;53.128;8.182;2023-02-27T08:10:36;14.35;;;9.05;;
12968;SDS011;6549;53.128;8.182;2023-02-27T08:13:37;12.77;;;6.38;;
12968;SDS011;6549;53.128;8.182;2023-02-27T08:16:37;12.27;;;7.15;;
12968;SDS011;6549;53.128;8.182;2023-02-27T08:19:37;13.25;;;6.38;;
12968;SDS011;6549;53.128;8.182;2023-02-27T08:22:38;12.18;;;6.53;;
12968;SDS011;6549;53.128;8.182;2023-02-27T08:25:40;10.00;;;6.00;;
12968;SDS011;6549;53.128;8.182;2023-02-27T08:28:40;11.57;;;5.93;;
12968;SDS011;6549;53.128;8.182;2023-02-27T08:31:41;9.85;;;5.35;;
12968;SDS011;6549;53.128;8.182;2023-02-27T08:34:41;8.98;;;5.10;;
12968;SDS011;6549;53.128;8.182;2023-02-27T08:37:41;7.40;;;4.80;;
12968;SDS011;6549;53.128;8.182;2023-02-27T08:40:41;11.95;;;4.35;;
12968;SDS011;6549;53.128;8.182;2023-02-27T08:43:42;6.85;;;3.70;;
12968;SDS011;6549;53.128;8.182;2023-02-27T08:46:42;9.13;;;4.30;;
12968;SDS011;6549;53.128;8.182;2023-02-27T08:49:42;7.00;;;3.92;;
12968;SDS011;6549;53.128;8.182;2023-02-27T08:52:43;10.82;;;4.28;;
12968;SDS011;6549;53.128;8.182;2023-02-27T08:55:43;10.30;;;4.15;;
12968;SDS011;6549;53.128;8.182;2023-02-27T08:58:47;7.63;;;4.05;;
12968;SDS011;6549;53.128;8.182;2023-02-27T09:01:47;6.65;;;3.70;;
12968;SDS011;6549;53.128;8.182;2023-02-27T09:04:48;7.88;;;3.65;;
12968;SDS011;6549;53.128;8.182;2023-02-27T09:07:48;9.50;;;3.60;;
12968;SDS011;6549;53.128;8.182;2023-02-27T09:10:50;7.53;;;3.00;;
12968;SDS011;6549;53.128;8.182;2023-02-27T09:13:50;5.90;;;3.00;;
12968;SDS011;6549;53.128;8.182;2023-02-27T09:16:51;10.23;;;3.17;;
12968;SDS011;6549;53.128;8.182;2023-02-27T09:19:52;6.72;;;2.67;;
12968;SDS011;6549;53.128;8.182;2023-02-27T09:22:52;6.82;;;2.80;;
12968;SDS011;6549;53.128;8.182;2023-02-27T09:25:52;7.60;;;2.70;;
12968;SDS011;6549;53.128;8.182;2023-02-27T09:28:52;6.15;;;2.65;;
12968;SDS011;6549;53.128;8.182;2023-02-27T09:31:53;7.72;;;2.53;;
12968;SDS011;6549;53.128;8.182;2023-02-27T09:34:53;8.35;;;2.50;;
12968;SDS011;6549;53.128;8.182;2023-02-27T09:37:56;7.55;;;2.30;;
12968;SDS011;6549;53.128;8.182;2023-02-27T09:40:57;6.95;;;2.20;;
12968;SDS011;6549;53.128;8.182;2023-02-27T09:43:58;7.35;;;2.53;;
12968;SDS011;6549;53.128;8.182;2023-02-27T09:47:01;8.40;;;2.80;;
12968;SDS011;6549;53.128;8.182;2023-02-27T09:50:06;6.65;;;2.40;;
12968;SDS011;6549;53.128;8.182;2023-02-27T09:53:31;8.38;;;2.38;;
12968;SDS011;6549;53.128;8.182;2023-02-27T09:56:53;4.88;;;2.10;;
12968;SDS011;6549;53.128;8.182;2023-02-27T09:59:58;5.90;;;1.80;;
12968;SDS011;6549;53.128;8.182;2023-02-27T10:03:29;4.00;;;1.70;;
12968;SDS011;6549;53.128;8.182;2023-02-27T10:06:43;4.53;;;2.10;;
12968;SDS011;6549;53.128;8.182;2023-02-27T10:10:12;3.42;;;1.70;;
12968;SDS011;6549;53.128;8.182;2023-02-27T10:13:46;4.03;;;1.60;;
12968;SDS011;6549;53.128;8.182;2023-02-27T10:17:05;5.22;;;2.05;;
12968;SDS011;6549;53.128;8.182;2023-02-27T10:21:17;4.97;;;1.50;;
12968;SDS011;6549;53.128;8.182;2023-02-27T10:24:17;4.75;;;1.80;;
12968;SDS011;6549;53.128;8.182;2023-02-27T10:27:22;4.63;;;1.60;;
12968;SDS011;6549;53.128;8.182;2023-02-27T10:30:26;6.50;;;2.03;;
12968;SDS011;6549;53.128;8.182;2023-02-27T10:36:36;3.90;;;1.98;;
12968;SDS011;6549;53.128;8.182;2023-02-27T10:39:50;2.83;;;1.60;;
12968;SDS011;6549;53.128;8.182;2023-02-27T10:42:55;4.88;;;1.60;;
12968;SDS011;6549;53.128;8.182;2023-02-27T10:46:02;4.03;;;1.30;;
12968;SDS011;6549;53.128;8.182;2023-02-27T10:49:13;2.95;;;1.50;;
12968;SDS011;6549;53.128;8.182;2023-02-27T10:52:20;3.42;;;1.00;;
12968;SDS011;6549;53.128;8.182;2023-02-27T10:55:22;2.13;;;1.10;;
12968;SDS011;6549;53.128;8.182;2023-02-27T10:58:25;3.45;;;1.38;;
12968;SDS011;6549;53.128;8.182;2023-02-27T11:01:42;3.38;;;1.15;;
12968;SDS011;6549;53.128;8.182;2023-02-27T11:04:53;4.50;;;1.77;;
12968;SDS011;6549;53.128;8.182;2023-02-27T11:11:26;3.13;;;1.58;;
12968;SDS011;6549;53.128;8.182;2023-02-27T11:14:31;8.23;;;2.22;;
12968;SDS011;6549;53.128;8.182;2023-02-27T11:17:33;6.55;;;2.22;;
12968;SDS011;6549;53.128;8.182;2023-02-27T11:20:36;4.25;;;1.92;;
12968;SDS011;6549;53.128;8.182;2023-02-27T11:23:51;2.95;;;1.40;;
12968;SDS011;6549;53.128;8.182;2023-02-27T11:27:01;2.72;;;1.25;;
12968;SDS011;6549;53.128;8.182;2023-02-27T11:30:08;3.58;;;1.50;;
12968;SDS011;6549;53.128;8.182;2023-02-27T11:33:24;4.05;;;1.52;;
12968;SDS011;6549;53.128;8.182;2023-02-27T11:36:43;4.50;;;1.60;;
12968;SDS011;6549;53.128;8.182;2023-02-27T11:39:54;3.25;;;1.55;;
12968;SDS011;6549;53.128;8.182;2023-02-27T11:46:18;5.43;;;1.60;;
12968;SDS011;6549;53.128;8.182;2023-02-27T12:00:03;4.13;;;1.40;;
12968;SDS011;6549;53.128;8.182;2023-02-27T12:03:21;2.55;;;1.30;;
12968;SDS011;6549;53.128;8.182;2023-02-27T12:06:39;3.65;;;1.45;;
12968;SDS011;6549;53.128;8.182;2023-02-27T12:09:49;3.70;;;1.20;;
12968;SDS011;6549;53.128;8.182;2023-02-27T12:13:04;3.20;;;1.08;;
12968;SDS011;6549;53.128;8.182;2023-02-27T12:16:15;2.53;;;1.30;;
12968;SDS011;6549;53.128;8.182;2023-02-27T12:19:47;1.85;;;1.10;;
12968;SDS011;6549;53.128;8.182;2023-02-27T12:22:55;6.20;;;1.40;;
12968;SDS011;6549;53.128;8.182;2023-02-27T12:26:00;3.47;;;1.40;;
12968;SDS011;6549;53.128;8.182;2023-02-27T12:35:30;3.00;;;1.13;;
12968;SDS011;6549;53.128;8.182;2023-02-27T12:38:34;2.67;;;1.30;;
12968;SDS011;6549;53.128;8.182;2023-02-27T12:44:57;3.22;;;1.10;;
12968;SDS011;6549;53.128;8.182;2023-02-27T12:55:17;2.08;;;1.30;;
12968;SDS011;6549;53.128;8.182;2023-02-27T13:01:52;4.53;;;1.63;;
12968;SDS011;6549;53.128;8.182;2023-02-27T13:08:33;2.53;;;1.70;;
12968;SDS011;6549;53.128;8.182;2023-02-27T13:15:33;3.78;;;1.60;;
12968;SDS011;6549;53.128;8.182;2023-02-27T13:18:44;4.68;;;1.77;;
12968;SDS011;6549;53.128;8.182;2023-02-27T13:21:53;5.72;;;1.92;;
12968;SDS011;6549;53.128;8.182;2023-02-27T13:25:02;3.05;;;1.70;;
12968;SDS011;6549;53.128;8.182;2023-02-27T13:28:07;2.55;;;1.50;;
12968;SDS011;6549;53.128;8.182;2023-02-27T13:31:18;4.22;;;1.10;;
12968;SDS011;6549;53.128;8.182;2023-02-27T13:34:29;3.10;;;1.70;;
12968;SDS011;6549;53.128;8.182;2023-02-27T13:53:32;1.30;;;1.20;;
12968;SDS011;6549;53.128;8.182;2023-02-27T13:56:32;3.05;;;1.20;;
12968;SDS011;6549;53.128;8.182;2023-02-27T13:59:34;2.00;;;1.10;;
12968;SDS011;6549;53.128;8.182;2023-02-27T14:02:40;2.17;;;1.50;;
12968;SDS011;6549;53.128;8.182;2023-02-27T14:05:44;3.25;;;1.23;;
12968;SDS011;6549;53.128;8.182;2023-02-27T14:08:47;3.05;;;1.30;;
12968;SDS011;6549;53.128;8.182;2023-02-27T14:11:50;2.53;;;1.17;;
12968;SDS011;6549;53.128;8.182;2023-02-27T14:14:53;3.38;;;1.40;;
12968;SDS011;6549;53.128;8.182;2023-02-27T14:17:58;3.28;;;1.50;;
12968;SDS011;6549;53.128;8.182;2023-02-27T14:20:59;2.13;;;1.60;;
12968;SDS011;6549;53.128;8.182;2023-02-27T14:23:59;4.35;;;1.50;;
12968;SDS011;6549;53.128;8.182;2023-02-27T14:27:00;2.53;;;1.23;;
12968;SDS011;6549;53.128;8.182;2023-02-27T14:30:03;4.10;;;1.50;;
12968;SDS011;6549;53.128;8.182;2023-02-27T14:33:20;5.50;;;1.33;;
12968;SDS011;6549;53.128;8.182;2023-02-27T14:36:24;1.20;;;1.10;;
12968;SDS011;6549;53.128;8.182;2023-02-27T14:39:31;2.22;;;1.33;;
12968;SDS011;6549;53.128;8.182;2023-02-27T14:42:54;2.42;;;1.38;;
12968;SDS011;6549;53.128;8.182;2023-02-27T14:46:37;4.00;;;1.50;;
12968;SDS011;6549;53.128;8.182;2023-02-27T14:49:33;2.95;;;1.30;;
12968;SDS011;6549;53.128;8.182;2023-02-27T14:52:41;2.55;;;1.25;;
12968;SDS011;6549;53.128;8.182;2023-02-27T14:55:42;3.28;;;1.20;;
12968;SDS011;6549;53.128;8.182;2023-02-27T14:59:00;3.97;;;1.58;;
12968;SDS011;6549;53.128;8.182;2023-02-27T15:02:01;3.83;;;1.33;;
12968;SDS011;6549;53.128;8.182;2023-02-27T15:08:06;5.07;;;1.38;;
12968;SDS011;6549;53.128;8.182;2023-02-27T15:11:14;2.45;;;1.20;;
12968;SDS011;6549;53.128;8.182;2023-02-27T15:14:18;2.95;;;1.25;;
12968;SDS011;6549;53.128;8.182;2023-02-27T15:17:26;1.85;;;1.20;;
12968;SDS011;6549;53.128;8.182;2023-02-27T15:20:35;3.67;;;1.27;;
12968;SDS011;6549;53.128;8.182;2023-02-27T15:23:36;5.63;;;1.50;;
12968;SDS011;6549;53.128;8.182;2023-02-27T15:26:38;3.72;;;1.27;;
12968;SDS011;6549;53.128;8.182;2023-02-27T15:29:47;1.90;;;1.10;;
12968;SDS011;6549;53.128;8.182;2023-02-27T15:32:49;2.25;;;1.13;;
12968;SDS011;6549;53.128;8.182;2023-02-27T15:35:50;3.13;;;1.27;;
12968;SDS011;6549;53.128;8.182;2023-02-27T15:39:07;2.75;;;1.30;;
12968;SDS011;6549;53.128;8.182;2023-02-27T15:42:17;1.60;;;1.02;;
12968;SDS011;6549;53.128;8.182;2023-02-27T15:45:20;2.60;;;1.20;;
12968;SDS011;6549;53.128;8.182;2023-02-27T15:48:24;1.80;;;1.33;;
12968;SDS011;6549;53.128;8.182;2023-02-27T15:51:25;3.05;;;1.30;;
12968;SDS011;6549;53.128;8.182;2023-02-27T15:54:35;2.80;;;1.60;;
12968;SDS011;6549;53.128;8.182;2023-02-27T15:57:35;4.35;;;1.40;;
12968;SDS011;6549;53.128;8.182;2023-02-27T16:00:36;2.40;;;1.20;;
12968;SDS011;6549;53.128;8.182;2023-02-27T16:03:39;6.60;;;1.90;;
12968;SDS011;6549;53.128;8.182;2023-02-27T16:06:45;3.72;;;1.70;;
12968;SDS011;6549;53.128;8.182;2023-02-27T16:09:49;2.58;;;1.30;;
12968;SDS011;6549;53.128;8.182;2023-02-27T16:12:53;2.78;;;1.40;;
12968;SDS011;6549;53.128;8.182;2023-02-27T16:16:04;1.50;;;1.15;;
12968;SDS011;6549;53.128;8.182;2023-02-27T16:22:22;2.97;;;1.80;;
12968;SDS011;6549;53.128;8.182;2023-02-27T16:25:23;6.82;;;1.70;;
12968;SDS011;6549;53.128;8.182;2023-02-27T16:28:26;4.10;;;1.80;;
12968;SDS011;6549;53.128;8.182;2023-02-27T16:31:32;3.03;;;1.70;;
12968;SDS011;6549;53.128;8.182;2023-02-27T16:34:36;7.07;;;1.85;;
12968;SDS011;6549;53.128;8.182;2023-02-27T16:37:45;3.83;;;1.60;;
12968;SDS011;6549;53.128;8.182;2023-02-27T16:40:46;4.28;;;1.92;;
12968;SDS011;6549;53.128;8.182;2023-02-27T16:43:47;3.47;;;1.67;;
12968;SDS011;6549;53.128;8.182;2023-02-27T16:46:48;3.97;;;1.83;;
12968;SDS011;6549;53.128;8.182;2023-02-27T16:49:49;6.43;;;2.47;;
12968;SDS011;6549;53.128;8.182;2023-02-27T16:52:49;4.65;;;2.35;;
12968;SDS011;6549;53.128;8.182;2023-02-27T16:55:50;4.95;;;2.10;;
12968;SDS011;6549;53.128;8.182;2023-02-27T16:58:50;3.80;;;1.80;;
12968;SDS011;6549;53.128;8.182;2023-02-27T17:01:51;4.15;;;2.00;;
12968;SDS011;6549;53.128;8.182;2023-02-27T17:04:51;4.10;;;2.20;;
12968;SDS011;6549;53.128;8.182;2023-02-27T17:07:51;7.10;;;2.10;;
12968;SDS011;6549;53.128;8.182;2023-02-27T17:10:52;4.28;;;2.25;;
12968;SDS011;6549;53.128;8.182;2023-02-27T17:13:52;5.90;;;2.22;;
12968;SDS011;6549;53.128;8.182;2023-02-27T17:16:52;4.53;;;2.13;;
12968;SDS011;6549;53.128;8.182;2023-02-27T17:19:53;6.63;;;2.30;;
12968;SDS011;6549;53.128;8.182;2023-02-27T17:22:53;3.67;;;2.20;;
12968;SDS011;6549;53.128;8.182;2023-02-27T17:25:54;5.95;;;1.90;;
12968;SDS011;6549;53.128;8.182;2023-02-27T17:28:54;4.68;;;2.15;;
12968;SDS011;6549;53.128;8.182;2023-02-27T17:31:55;5.72;;;2.35;;
12968;SDS011;6549;53.128;8.182;2023-02-27T17:34:56;4.43;;;2.22;;
12968;SDS011;6549;53.128;8.182;2023-02-27T17:37:58;5.60;;;2.08;;
12968;SDS011;6549;53.128;8.182;2023-02-27T17:40:58;6.38;;;1.95;;
12968;SDS011;6549;53.128;8.182;2023-02-27T17:44:04;6.13;;;1.88;;
12968;SDS011;6549;53.128;8.182;2023-02-27T17:47:04;3.63;;;1.80;;
12968;SDS011;6549;53.128;8.182;2023-02-27T17:50:05;3.47;;;1.83;;
12968;SDS011;6549;53.128;8.182;2023-02-27T17:53:05;3.70;;;1.70;;
12968;SDS011;6549;53.128;8.182;2023-02-27T17:59:09;3.75;;;1.88;;
12968;SDS011;6549;53.128;8.182;2023-02-27T18:02:10;4.90;;;2.30;;
12968;SDS011;6549;53.128;8.182;2023-02-27T18:05:12;7.25;;;3.55;;
12968;SDS011;6549;53.128;8.182;2023-02-27T18:08:13;5.57;;;3.30;;
12968;SDS011;6549;53.128;8.182;2023-02-27T18:11:14;6.35;;;3.10;;
12968;SDS011;6549;53.128;8.182;2023-02-27T18:14:17;6.40;;;2.42;;
12968;SDS011;6549;53.128;8.182;2023-02-27T18:17:17;5.68;;;2.60;;
12968;SDS011;6549;53.128;8.182;2023-02-27T18:20:18;6.45;;;2.72;;
12968;SDS011;6549;53.128;8.182;2023-02-27T18:23:18;4.35;;;2.53;;
12968;SDS011;6549;53.128;8.182;2023-02-27T18:26:26;5.97;;;3.20;;
12968;SDS011;6549;53.128;8.182;2023-02-27T18:29:28;5.25;;;2.92;;
12968;SDS011;6549;53.128;8.182;2023-02-27T18:32:29;5.82;;;2.72;;
12968;SDS011;6549;53.128;8.182;2023-02-27T18:35:29;4.38;;;2.50;;
12968;SDS011;6549;53.128;8.182;2023-02-27T18:38:29;4.85;;;2.50;;
12968;SDS011;6549;53.128;8.182;2023-02-27T18:41:30;7.25;;;3.00;;
12968;SDS011;6549;53.128;8.182;2023-02-27T18:44:30;10.38;;;4.25;;
12968;SDS011;6549;53.128;8.182;2023-02-27T18:47:31;9.40;;;4.78;;
12968;SDS011;6549;53.128;8.182;2023-02-27T18:50:31;5.43;;;3.08;;
12968;SDS011;6549;53.128;8.182;2023-02-27T18:53:34;5.72;;;2.67;;
12968;SDS011;6549;53.128;8.182;2023-02-27T18:56:35;5.78;;;2.97;;
12968;SDS011;6549;53.128;8.182;2023-02-27T18:59:35;4.45;;;2.78;;
12968;SDS011;6549;53.128;8.182;2023-02-27T19:02:35;5.55;;;2.60;;
12968;SDS011;6549;53.128;8.182;2023-02-27T19:05:40;4.97;;;2.55;;
12968;SDS011;6549;53.128;8.182;2023-02-27T19:08:40;4.80;;;2.60;;
12968;SDS011;6549;53.128;8.182;2023-02-27T19:11:41;4.68;;;2.33;;
12968;SDS011;6549;53.128;8.182;2023-02-27T19:14:42;5.72;;;2.75;;
12968;SDS011;6549;53.128;8.182;2023-02-27T19:17:42;5.07;;;2.67;;
12968;SDS011;6549;53.128;8.182;2023-02-27T19:20:42;5.00;;;2.70;;
12968;SDS011;6549;53.128;8.182;2023-02-27T19:23:43;6.00;;;2.78;;
12968;SDS011;6549;53.128;8.182;2023-02-27T19:26:43;5.82;;;3.20;;
12968;SDS011;6549;53.128;8.182;2023-02-27T19:29:43;6.47;;;3.33;;
12968;SDS011;6549;53.128;8.182;2023-02-27T19:32:44;5.57;;;3.17;;
12968;SDS011;6549;53.128;8.182;2023-02-27T19:35:44;5.93;;;3.38;;
12968;SDS011;6549;53.128;8.182;2023-02-27T19:38:44;6.00;;;3.17;;
12968;SDS011;6549;53.128;8.182;2023-02-27T19:41:45;6.95;;;3.63;;
12968;SDS011;6549;53.128;8.182;2023-02-27T19:44:45;7.28;;;4.20;;
12968;SDS011;6549;53.128;8.182;2023-02-27T19:47:46;7.07;;;3.95;;
12968;SDS011;6549;53.128;8.182;2023-02-27T19:50:46;7.55;;;3.88;;
12968;SDS011;6549;53.128;8.182;2023-02-27T19:53:47;7.05;;;4.15;;
12968;SDS011;6549;53.128;8.182;2023-02-27T19:56:47;9.20;;;4.13;;
12968;SDS011;6549;53.128;8.182;2023-02-27T19:59:48;6.45;;;4.30;;
12968;SDS011;6549;53.128;8.182;2023-02-27T20:02:48;9.50;;;5.15;;
12968;SDS011;6549;53.128;8.182;2023-02-27T20:05:48;8.27;;;5.15;;
12968;SDS011;6549;53.128;8.182;2023-02-27T20:08:49;9.63;;;5.32;;
12968;SDS011;6549;53.128;8.182;2023-02-27T20:11:51;7.53;;;4.60;;
12968;SDS011;6549;53.128;8.182;2023-02-27T20:14:55;7.10;;;4.32;;
12968;SDS011;6549;53.128;8.182;2023-02-27T20:17:55;6.45;;;4.18;;
12968;SDS011;6549;53.128;8.182;2023-02-27T20:24:07;8.50;;;4.50;;
12968;SDS011;6549;53.128;8.182;2023-02-27T20:27:10;7.35;;;4.60;;
12968;SDS011;6549;53.128;8.182;2023-02-27T20:30:11;7.10;;;3.92;;
12968;SDS011;6549;53.128;8.182;2023-02-27T20:33:11;6.97;;;4.40;;
12968;SDS011;6549;53.128;8.182;2023-02-27T20:36:12;6.60;;;3.72;;
12968;SDS011;6549;53.128;8.182;2023-02-27T20:39:12;6.15;;;3.70;;
12968;SDS011;6549;53.128;8.182;2023-02-27T20:42:13;10.82;;;5.60;;
12968;SDS011;6549;53.128;8.182;2023-02-27T20:45:14;12.32;;;6.10;;
12968;SDS011;6549;53.128;8.182;2023-02-27T20:48:14;6.97;;;4.28;;